sensor_id;sensor_type;location;lat;lon;timestamp;pressure;altitude;pressure_sealevel;temperature;humidity
62600;BME280;48671;48.922;2.346;2023-04-25T00:00:39;100974.47;;;11.39;66.69
62600;BME280;48671;48.922;2.346;2023-04-25T00:03:04;100977.91;;;11.39;66.60
62600;BME280;48671;48.922;2.346;2023-04-25T00:05:31;100972.69;;;11.39;66.71
62600;BME280;48671;48.922;2.346;2023-04-25T00:07:57;100973.78;;;11.34;66.75
62600;BME280;48671;48.922;2.346;2023-04-25T00:10:23;100976.69;;;11.26;66.81
62600;BME280;48671;48.922;2.346;2023-04-25T00:12:48;100976.69;;;11.26;66.74
62600;BME280;48671;48.922;2.346;2023-04-25T00:15:14;100963.94;;;11.18;66.71
62600;BME280;48671;48.922;2.346;2023-04-25T00:17:40;100959.75;;;11.14;66.57
62600;BME280;48671;48.922;2.346;2023-04-25T00:20:05;100969.19;;;11.17;66.74
62600;BME280;48671;48.922;2.346;2023-04-25T00:22:34;100962.53;;;11.10;66.88
62600;BME280;48671;48.922;2.346;2023-04-25T00:24:59;100963.34;;;11.12;67.22
62600;BME280;48671;48.922;2.346;2023-04-25T00:27:26;100969.28;;;11.15;67.13
62600;BME280;48671;48.922;2.346;2023-04-25T00:29:51;100960.94;;;11.06;66.59
62600;BME280;48671;48.922;2.346;2023-04-25T00:32:17;100963.56;;;11.06;67.03
62600;BME280;48671;48.922;2.346;2023-04-25T00:34:42;100971.28;;;11.07;66.80
62600;BME280;48671;48.922;2.346;2023-04-25T00:37:07;100960.38;;;10.97;66.38
62600;BME280;48671;48.922;2.346;2023-04-25T00:39:32;100964.72;;;10.97;66.33
62600;BME280;48671;48.922;2.346;2023-04-25T00:41:58;100967.34;;;10.97;66.70
62600;BME280;48671;48.922;2.346;2023-04-25T00:44:24;100968.25;;;10.96;66.75
62600;BME280;48671;48.922;2.346;2023-04-25T00:46:50;100968.25;;;10.96;66.95
62600;BME280;48671;48.922;2.346;2023-04-25T00:49:16;100961.69;;;10.86;66.96
62600;BME280;48671;48.922;2.346;2023-04-25T00:51:42;100969.41;;;10.87;66.62
62600;BME280;48671;48.922;2.346;2023-04-25T00:54:10;100980.41;;;10.95;66.58
62600;BME280;48671;48.922;2.346;2023-04-25T00:56:36;100953.25;;;10.79;66.85
62600;BME280;48671;48.922;2.346;2023-04-25T00:59:03;100968.72;;;10.82;67.07
62600;BME280;48671;48.922;2.346;2023-04-25T01:01:28;100967.97;;;10.78;67.20
62600;BME280;48671;48.922;2.346;2023-04-25T01:03:54;100976.66;;;10.79;67.04
62600;BME280;48671;48.922;2.346;2023-04-25T01:06:19;100979.38;;;10.76;66.92
62600;BME280;48671;48.922;2.346;2023-04-25T01:08:45;100973.34;;;10.74;67.08
62600;BME280;48671;48.922;2.346;2023-04-25T01:11:10;100976.91;;;10.71;66.80
62600;BME280;48671;48.922;2.346;2023-04-25T01:13:35;100973.34;;;10.74;66.74
62600;BME280;48671;48.922;2.346;2023-04-25T01:16:02;100968.25;;;10.71;66.82
62600;BME280;48671;48.922;2.346;2023-04-25T01:18:28;100966.72;;;10.65;67.06
62600;BME280;48671;48.922;2.346;2023-04-25T01:20:54;100949.69;;;10.57;66.94
62600;BME280;48671;48.922;2.346;2023-04-25T01:23:20;100958.13;;;10.63;67.07
62600;BME280;48671;48.922;2.346;2023-04-25T01:25:47;100950.69;;;10.52;67.28
62600;BME280;48671;48.922;2.346;2023-04-25T01:28:13;100966.25;;;10.54;67.15
62600;BME280;48671;48.922;2.346;2023-04-25T01:30:38;100973.25;;;10.52;66.96
62600;BME280;48671;48.922;2.346;2023-04-25T01:33:04;100966.47;;;10.48;67.14
62600;BME280;48671;48.922;2.346;2023-04-25T01:35:31;100967.59;;;10.39;67.07
62600;BME280;48671;48.922;2.346;2023-04-25T01:37:57;100972.81;;;10.39;67.71
62600;BME280;48671;48.922;2.346;2023-04-25T01:40:24;100972.81;;;10.39;67.14
62600;BME280;48671;48.922;2.346;2023-04-25T01:42:50;100982.44;;;10.37;67.60
62600;BME280;48671;48.922;2.346;2023-04-25T01:45:16;100966.03;;;10.35;67.62
62600;BME280;48671;48.922;2.346;2023-04-25T01:47:41;100969.47;;;10.36;67.45
62600;BME280;48671;48.922;2.346;2023-04-25T01:50:09;100973.88;;;10.34;67.60
62600;BME280;48671;48.922;2.346;2023-04-25T01:52:34;100979.00;;;10.37;67.68
62600;BME280;48671;48.922;2.346;2023-04-25T01:55:01;100970.28;;;10.38;67.19
62600;BME280;48671;48.922;2.346;2023-04-25T01:57:27;100976.50;;;10.34;67.42
62600;BME280;48671;48.922;2.346;2023-04-25T01:59:58;100976.53;;;10.32;67.49
62600;BME280;48671;48.922;2.346;2023-04-25T02:02:24;100969.84;;;10.23;67.36
62600;BME280;48671;48.922;2.346;2023-04-25T02:04:49;100986.19;;;10.28;67.68
62600;BME280;48671;48.922;2.346;2023-04-25T02:07:15;100969.97;;;10.20;67.76
62600;BME280;48671;48.922;2.346;2023-04-25T02:09:40;100971.66;;;10.21;67.73
62600;BME280;48671;48.922;2.346;2023-04-25T02:12:08;100978.53;;;10.22;67.61
62600;BME280;48671;48.922;2.346;2023-04-25T02:14:33;100975.09;;;10.22;67.64
62600;BME280;48671;48.922;2.346;2023-04-25T02:16:58;100987.19;;;10.23;67.33
62600;BME280;48671;48.922;2.346;2023-04-25T02:19:24;100980.38;;;10.20;67.47
62600;BME280;48671;48.922;2.346;2023-04-25T02:21:49;100978.75;;;10.16;67.74
62600;BME280;48671;48.922;2.346;2023-04-25T02:24:15;100977.13;;;10.14;68.04
62600;BME280;48671;48.922;2.346;2023-04-25T02:26:40;100971.84;;;10.15;68.20
62600;BME280;48671;48.922;2.346;2023-04-25T02:29:05;100980.41;;;10.19;67.78
62600;BME280;48671;48.922;2.346;2023-04-25T02:31:30;100972.69;;;10.16;67.69
62600;BME280;48671;48.922;2.346;2023-04-25T02:33:56;100978.00;;;10.13;68.25
62600;BME280;48671;48.922;2.346;2023-04-25T02:36:21;100984.00;;;10.15;68.10
62600;BME280;48671;48.922;2.346;2023-04-25T02:38:46;100969.53;;;10.06;68.01
62600;BME280;48671;48.922;2.346;2023-04-25T02:41:12;100978.94;;;10.10;67.84
62600;BME280;48671;48.922;2.346;2023-04-25T02:43:37;100981.44;;;10.13;68.24
62600;BME280;48671;48.922;2.346;2023-04-25T02:46:03;100980.59;;;10.13;68.30
62600;BME280;48671;48.922;2.346;2023-04-25T02:48:28;100979.84;;;10.09;67.82
62600;BME280;48671;48.922;2.346;2023-04-25T02:50:54;100990.25;;;10.09;68.32
62600;BME280;48671;48.922;2.346;2023-04-25T02:53:19;100985.13;;;10.07;68.34
62600;BME280;48671;48.922;2.346;2023-04-25T02:55:45;100975.78;;;10.00;68.43
62600;BME280;48671;48.922;2.346;2023-04-25T02:58:10;100990.34;;;10.06;68.54
62600;BME280;48671;48.922;2.346;2023-04-25T03:00:36;100980.00;;;10.04;68.22
62600;BME280;48671;48.922;2.346;2023-04-25T03:03:01;100987.06;;;10.01;68.47
62600;BME280;48671;48.922;2.346;2023-04-25T03:05:26;100987.84;;;10.03;68.48
62600;BME280;48671;48.922;2.346;2023-04-25T03:07:52;100986.25;;;9.99;68.19
62600;BME280;48671;48.922;2.346;2023-04-25T03:10:17;100982.91;;;9.95;68.35
62600;BME280;48671;48.922;2.346;2023-04-25T03:12:42;100993.38;;;9.92;68.59
62600;BME280;48671;48.922;2.346;2023-04-25T03:15:08;100988.28;;;9.89;68.76
62600;BME280;48671;48.922;2.346;2023-04-25T03:17:33;100982.34;;;9.85;68.52
62600;BME280;48671;48.922;2.346;2023-04-25T03:19:59;100981.53;;;9.83;68.58
62600;BME280;48671;48.922;2.346;2023-04-25T03:22:24;100983.34;;;9.81;68.88
62600;BME280;48671;48.922;2.346;2023-04-25T03:24:50;100982.53;;;9.79;68.98
62600;BME280;48671;48.922;2.346;2023-04-25T03:27:16;100982.53;;;9.79;69.26
62600;BME280;48671;48.922;2.346;2023-04-25T03:29:42;100967.88;;;9.77;69.64
62600;BME280;48671;48.922;2.346;2023-04-25T03:32:07;100983.25;;;9.84;69.20
62600;BME280;48671;48.922;2.346;2023-04-25T03:34:32;100980.44;;;9.91;69.16
62600;BME280;48671;48.922;2.346;2023-04-25T03:36:57;100980.41;;;9.92;69.10
62600;BME280;48671;48.922;2.346;2023-04-25T03:39:23;100983.91;;;9.91;68.99
62600;BME280;48671;48.922;2.346;2023-04-25T03:41:48;100985.69;;;9.89;69.29
62600;BME280;48671;48.922;2.346;2023-04-25T03:44:13;100984.03;;;9.87;69.21
62600;BME280;48671;48.922;2.346;2023-04-25T03:46:39;100985.75;;;9.88;69.14
62600;BME280;48671;48.922;2.346;2023-04-25T03:49:05;100995.25;;;9.89;69.24
62600;BME280;48671;48.922;2.346;2023-04-25T03:51:30;100983.19;;;9.86;69.64
62600;BME280;48671;48.922;2.346;2023-04-25T03:53:56;100982.19;;;9.90;69.19
62600;BME280;48671;48.922;2.346;2023-04-25T03:56:21;100986.59;;;9.88;69.41
62600;BME280;48671;48.922;2.346;2023-04-25T03:58:46;100998.78;;;9.86;69.56
62600;BME280;48671;48.922;2.346;2023-04-25T04:01:12;100994.50;;;9.85;69.67
62600;BME280;48671;48.922;2.346;2023-04-25T04:03:37;100995.53;;;9.79;70.21
62600;BME280;48671;48.922;2.346;2023-04-25T04:06:04;101004.97;;;9.82;69.58
62600;BME280;48671;48.922;2.346;2023-04-25T04:08:30;101009.41;;;9.78;69.61
62600;BME280;48671;48.922;2.346;2023-04-25T04:10:57;101004.25;;;9.77;69.63
62600;BME280;48671;48.922;2.346;2023-04-25T04:13:23;101004.34;;;9.74;70.07
62600;BME280;48671;48.922;2.346;2023-04-25T04:15:48;101006.19;;;9.70;70.22
62600;BME280;48671;48.922;2.346;2023-04-25T04:18:14;101010.53;;;9.70;70.29
62600;BME280;48671;48.922;2.346;2023-04-25T04:20:39;101009.63;;;9.71;70.21
62600;BME280;48671;48.922;2.346;2023-04-25T04:23:04;101007.03;;;9.71;70.06
62600;BME280;48671;48.922;2.346;2023-04-25T04:25:30;101020.00;;;9.72;70.15
62600;BME280;48671;48.922;2.346;2023-04-25T04:27:56;101017.34;;;9.74;70.21
62600;BME280;48671;48.922;2.346;2023-04-25T04:30:22;101025.00;;;9.78;70.26
62600;BME280;48671;48.922;2.346;2023-04-25T04:32:52;101026.75;;;9.78;70.43
62600;BME280;48671;48.922;2.346;2023-04-25T04:35:17;101019.16;;;9.72;70.28
62600;BME280;48671;48.922;2.346;2023-04-25T04:37:42;101025.94;;;9.76;70.25
62600;BME280;48671;48.922;2.346;2023-04-25T04:40:09;101032.91;;;9.75;70.08
62600;BME280;48671;48.922;2.346;2023-04-25T04:42:34;101020.91;;;9.71;70.24
62600;BME280;48671;48.922;2.346;2023-04-25T04:45:01;101034.56;;;9.78;69.97
62600;BME280;48671;48.922;2.346;2023-04-25T04:47:27;101036.38;;;9.74;70.03
62600;BME280;48671;48.922;2.346;2023-04-25T04:49:55;101041.44;;;9.79;70.11
62600;BME280;48671;48.922;2.346;2023-04-25T04:52:21;101042.38;;;9.76;70.21
62600;BME280;48671;48.922;2.346;2023-04-25T04:54:46;101051.78;;;9.80;70.39
62600;BME280;48671;48.922;2.346;2023-04-25T04:57:11;101053.44;;;9.83;70.15
62600;BME280;48671;48.922;2.346;2023-04-25T04:59:37;101044.91;;;9.79;69.73
62600;BME280;48671;48.922;2.346;2023-04-25T05:02:02;101059.63;;;9.79;69.93
62600;BME280;48671;48.922;2.346;2023-04-25T05:04:28;101069.88;;;9.83;70.51
62600;BME280;48671;48.922;2.346;2023-04-25T05:06:53;101057.97;;;9.76;70.08
62600;BME280;48671;48.922;2.346;2023-04-25T05:09:18;101065.69;;;9.79;70.20
62600;BME280;48671;48.922;2.346;2023-04-25T05:11:44;101070.84;;;9.81;70.46
62600;BME280;48671;48.922;2.346;2023-04-25T05:14:09;101083.72;;;9.84;69.79
62600;BME280;48671;48.922;2.346;2023-04-25T05:16:35;101082.09;;;9.81;70.36
62600;BME280;48671;48.922;2.346;2023-04-25T05:19:00;101084.59;;;9.84;70.49
62600;BME280;48671;48.922;2.346;2023-04-25T05:21:26;101098.34;;;9.88;70.50
62600;BME280;48671;48.922;2.346;2023-04-25T05:23:52;101101.03;;;9.85;70.10
62600;BME280;48671;48.922;2.346;2023-04-25T05:26:17;101100.19;;;9.84;70.33
62600;BME280;48671;48.922;2.346;2023-04-25T05:28:43;101103.66;;;9.83;70.16
62600;BME280;48671;48.922;2.346;2023-04-25T05:31:11;101106.25;;;9.85;70.42
62600;BME280;48671;48.922;2.346;2023-04-25T05:33:36;101107.84;;;9.89;70.87
62600;BME280;48671;48.922;2.346;2023-04-25T05:36:02;101104.50;;;9.84;70.68
62600;BME280;48671;48.922;2.346;2023-04-25T05:38:27;101118.31;;;9.88;70.48
62600;BME280;48671;48.922;2.346;2023-04-25T05:40:52;101125.13;;;9.90;70.34
62600;BME280;48671;48.922;2.346;2023-04-25T05:43:18;101127.91;;;9.84;70.21
62600;BME280;48671;48.922;2.346;2023-04-25T05:45:43;101134.84;;;9.83;70.89
62600;BME280;48671;48.922;2.346;2023-04-25T05:48:08;101144.38;;;9.84;70.73
62600;BME280;48671;48.922;2.346;2023-04-25T05:50:34;101145.13;;;9.88;70.55
62600;BME280;48671;48.922;2.346;2023-04-25T05:52:59;101145.16;;;9.87;70.94
62600;BME280;48671;48.922;2.346;2023-04-25T05:55:24;101147.94;;;9.80;70.36
62600;BME280;48671;48.922;2.346;2023-04-25T05:57:50;101158.31;;;9.80;70.94
62600;BME280;48671;48.922;2.346;2023-04-25T06:00:15;101167.13;;;9.76;70.63
62600;BME280;48671;48.922;2.346;2023-04-25T06:02:41;101162.09;;;9.70;70.44
62600;BME280;48671;48.922;2.346;2023-04-25T06:05:07;101177.44;;;9.79;71.11
62600;BME280;48671;48.922;2.346;2023-04-25T06:07:32;101158.47;;;9.76;70.86
62600;BME280;48671;48.922;2.346;2023-04-25T06:09:57;101172.22;;;9.79;71.11
62600;BME280;48671;48.922;2.346;2023-04-25T06:12:23;101176.41;;;9.85;70.69
62600;BME280;48671;48.922;2.346;2023-04-25T06:14:48;101175.47;;;9.88;70.20
62600;BME280;48671;48.922;2.346;2023-04-25T06:17:13;101179.88;;;9.84;70.37
62600;BME280;48671;48.922;2.346;2023-04-25T06:19:39;101169.59;;;9.81;70.83
62600;BME280;48671;48.922;2.346;2023-04-25T06:22:04;101179.13;;;9.80;70.54
62600;BME280;48671;48.922;2.346;2023-04-25T06:24:30;101179.09;;;9.82;70.36
62600;BME280;48671;48.922;2.346;2023-04-25T06:26:55;101171.28;;;9.82;69.82
62600;BME280;48671;48.922;2.346;2023-04-25T06:29:20;101169.69;;;9.78;69.93
62600;BME280;48671;48.922;2.346;2023-04-25T06:31:46;101192.13;;;9.80;70.12
62600;BME280;48671;48.922;2.346;2023-04-25T06:34:11;101187.78;;;9.81;69.83
62600;BME280;48671;48.922;2.346;2023-04-25T06:36:37;101181.13;;;9.71;70.21
62600;BME280;48671;48.922;2.346;2023-04-25T06:39:02;101198.22;;;9.79;70.39
62600;BME280;48671;48.922;2.346;2023-04-25T06:41:28;101193.00;;;9.81;70.17
62600;BME280;48671;48.922;2.346;2023-04-25T06:43:53;101198.19;;;9.81;69.79
62600;BME280;48671;48.922;2.346;2023-04-25T06:46:18;101196.53;;;9.78;70.34
62600;BME280;48671;48.922;2.346;2023-04-25T06:48:44;101202.44;;;9.83;69.74
62600;BME280;48671;48.922;2.346;2023-04-25T06:51:09;101214.34;;;9.91;69.81
62600;BME280;48671;48.922;2.346;2023-04-25T06:53:35;101202.41;;;9.85;70.00
62600;BME280;48671;48.922;2.346;2023-04-25T06:56:04;101217.69;;;9.96;69.68
62600;BME280;48671;48.922;2.346;2023-04-25T06:58:29;101223.88;;;9.92;69.45
62600;BME280;48671;48.922;2.346;2023-04-25T07:00:54;101228.50;;;9.80;69.60
62600;BME280;48671;48.922;2.346;2023-04-25T07:03:20;101234.72;;;9.75;69.78
62600;BME280;48671;48.922;2.346;2023-04-25T07:05:45;101234.00;;;9.70;70.09
62600;BME280;48671;48.922;2.346;2023-04-25T07:08:11;101238.38;;;9.68;69.93
62600;BME280;48671;48.922;2.346;2023-04-25T07:10:36;101235.75;;;9.69;69.61
62600;BME280;48671;48.922;2.346;2023-04-25T07:13:01;101246.13;;;9.69;69.97
62600;BME280;48671;48.922;2.346;2023-04-25T07:15:27;101245.53;;;9.58;69.85
62600;BME280;48671;48.922;2.346;2023-04-25T07:17:52;101245.66;;;9.55;69.71
62600;BME280;48671;48.922;2.346;2023-04-25T07:20:17;101252.53;;;9.56;69.58
62600;BME280;48671;48.922;2.346;2023-04-25T07:22:43;101251.88;;;9.48;69.62
62600;BME280;48671;48.922;2.346;2023-04-25T07:25:09;101259.88;;;9.40;69.24
62600;BME280;48671;48.922;2.346;2023-04-25T07:27:34;101252.28;;;9.32;69.62
62600;BME280;48671;48.922;2.346;2023-04-25T07:30:00;101269.41;;;9.40;69.19
62600;BME280;48671;48.922;2.346;2023-04-25T07:32:26;101273.69;;;9.42;68.90
62600;BME280;48671;48.922;2.346;2023-04-25T07:34:51;101272.09;;;9.35;69.19
62600;BME280;48671;48.922;2.346;2023-04-25T07:37:17;101268.56;;;9.39;69.23
62600;BME280;48671;48.922;2.346;2023-04-25T07:39:44;101269.41;;;9.40;69.24
62600;BME280;48671;48.922;2.346;2023-04-25T07:42:11;101280.34;;;9.52;68.85
62600;BME280;48671;48.922;2.346;2023-04-25T07:44:36;101283.72;;;9.56;68.89
62600;BME280;48671;48.922;2.346;2023-04-25T07:47:07;101298.25;;;9.63;68.75
62600;BME280;48671;48.922;2.346;2023-04-25T07:49:36;101296.41;;;9.68;68.51
62600;BME280;48671;48.922;2.346;2023-04-25T07:52:03;101289.38;;;9.72;68.53
62600;BME280;48671;48.922;2.346;2023-04-25T07:54:28;101284.06;;;9.76;68.42
62600;BME280;48671;48.922;2.346;2023-04-25T07:56:54;101289.94;;;9.83;68.21
62600;BME280;48671;48.922;2.346;2023-04-25T07:59:20;101284.59;;;9.89;68.04
62600;BME280;48671;48.922;2.346;2023-04-25T08:01:45;101305.06;;;10.00;68.24
62600;BME280;48671;48.922;2.346;2023-04-25T08:04:11;101297.94;;;10.08;68.39
62600;BME280;48671;48.922;2.346;2023-04-25T08:06:36;101308.00;;;10.20;67.85
62600;BME280;48671;48.922;2.346;2023-04-25T08:09:02;101308.72;;;10.25;67.14
62600;BME280;48671;48.922;2.346;2023-04-25T08:11:28;101313.88;;;10.28;67.28
62600;BME280;48671;48.922;2.346;2023-04-25T08:13:53;101331.91;;;10.35;67.16
62600;BME280;48671;48.922;2.346;2023-04-25T08:16:19;101329.75;;;10.49;67.31
62600;BME280;48671;48.922;2.346;2023-04-25T08:18:44;101333.13;;;10.52;66.74
62600;BME280;48671;48.922;2.346;2023-04-25T08:21:09;101338.41;;;10.49;66.00
62600;BME280;48671;48.922;2.346;2023-04-25T08:23:36;101335.22;;;10.40;66.20
62600;BME280;48671;48.922;2.346;2023-04-25T08:26:02;101347.38;;;10.39;66.32
62600;BME280;48671;48.922;2.346;2023-04-25T08:28:27;101351.09;;;10.30;66.30
62600;BME280;48671;48.922;2.346;2023-04-25T08:30:53;101346.91;;;10.23;67.07
62600;BME280;48671;48.922;2.346;2023-04-25T08:33:18;101352.31;;;10.17;66.50
62600;BME280;48671;48.922;2.346;2023-04-25T08:35:44;101361.06;;;10.13;66.71
62600;BME280;48671;48.922;2.346;2023-04-25T08:38:09;101362.13;;;10.06;66.31
62600;BME280;48671;48.922;2.346;2023-04-25T08:40:38;101379.53;;;10.04;66.53
62600;BME280;48671;48.922;2.346;2023-04-25T08:43:04;101376.03;;;10.03;66.95
62600;BME280;48671;48.922;2.346;2023-04-25T08:45:32;101376.03;;;10.05;66.52
62600;BME280;48671;48.922;2.346;2023-04-25T08:47:58;101379.94;;;10.20;66.67
62600;BME280;48671;48.922;2.346;2023-04-25T08:50:24;101374.47;;;10.32;66.47
62600;BME280;48671;48.922;2.346;2023-04-25T08:52:53;101362.78;;;10.47;66.69
62600;BME280;48671;48.922;2.346;2023-04-25T08:55:21;101386.41;;;10.70;65.70
62600;BME280;48671;48.922;2.346;2023-04-25T08:57:48;101379.31;;;10.75;65.09
62600;BME280;48671;48.922;2.346;2023-04-25T09:00:14;101376.09;;;10.67;64.46
62600;BME280;48671;48.922;2.346;2023-04-25T09:02:39;101385.66;;;10.67;64.84
62600;BME280;48671;48.922;2.346;2023-04-25T09:05:06;101401.13;;;10.71;64.88
62600;BME280;48671;48.922;2.346;2023-04-25T09:07:32;101406.34;;;10.71;64.53
62600;BME280;48671;48.922;2.346;2023-04-25T09:09:58;101402.88;;;10.71;64.37
62600;BME280;48671;48.922;2.346;2023-04-25T09:12:27;101407.91;;;10.77;64.61
62600;BME280;48671;48.922;2.346;2023-04-25T09:15:04;101409.50;;;10.83;64.46
62600;BME280;48671;48.922;2.346;2023-04-25T09:17:30;101412.72;;;10.91;64.37
62600;BME280;48671;48.922;2.346;2023-04-25T09:20:05;101412.63;;;10.94;63.17
62600;BME280;48671;48.922;2.346;2023-04-25T09:22:31;101413.66;;;10.88;63.52
62600;BME280;48671;48.922;2.346;2023-04-25T09:24:56;101423.31;;;10.85;63.32
62600;BME280;48671;48.922;2.346;2023-04-25T09:27:22;101414.78;;;10.80;63.73
62600;BME280;48671;48.922;2.346;2023-04-25T09:29:57;101423.56;;;10.75;63.70
62600;BME280;48671;48.922;2.346;2023-04-25T09:32:24;101434.84;;;10.76;62.92
62600;BME280;48671;48.922;2.346;2023-04-25T09:34:55;101442.56;;;10.79;63.13
62600;BME280;48671;48.922;2.346;2023-04-25T09:37:22;101448.63;;;10.80;63.03
62600;BME280;48671;48.922;2.346;2023-04-25T09:39:50;101433.09;;;10.76;63.22
62600;BME280;48671;48.922;2.346;2023-04-25T09:42:16;101427.75;;;10.81;63.34
62600;BME280;48671;48.922;2.346;2023-04-25T09:44:43;101441.09;;;11.00;62.42
62600;BME280;48671;48.922;2.346;2023-04-25T09:47:10;101443.44;;;11.09;62.38
62600;BME280;48671;48.922;2.346;2023-04-25T09:49:39;101452.44;;;11.27;61.44
62600;BME280;48671;48.922;2.346;2023-04-25T09:52:05;101442.69;;;11.34;61.68
62600;BME280;48671;48.922;2.346;2023-04-25T09:54:31;101440.38;;;11.53;62.27
62600;BME280;48671;48.922;2.346;2023-04-25T09:56:58;101440.00;;;11.65;61.49
62600;BME280;48671;48.922;2.346;2023-04-25T09:59:30;101452.66;;;11.77;61.08
62600;BME280;48671;48.922;2.346;2023-04-25T10:01:57;101444.63;;;11.83;60.96
62600;BME280;48671;48.922;2.346;2023-04-25T10:04:24;101451.59;;;11.84;60.03
62600;BME280;48671;48.922;2.346;2023-04-25T10:06:52;101442.09;;;11.80;59.53
62600;BME280;48671;48.922;2.346;2023-04-25T10:09:20;101458.72;;;11.78;60.51
62600;BME280;48671;48.922;2.346;2023-04-25T10:11:46;101464.69;;;11.81;60.04
62600;BME280;48671;48.922;2.346;2023-04-25T10:14:16;101465.47;;;11.85;60.10
62600;BME280;48671;48.922;2.346;2023-04-25T10:16:41;101456.88;;;11.81;60.18
62600;BME280;48671;48.922;2.346;2023-04-25T10:19:07;101458.34;;;11.90;60.56
62600;BME280;48671;48.922;2.346;2023-04-25T10:21:33;101466.59;;;12.04;59.70
62600;BME280;48671;48.922;2.346;2023-04-25T10:24:02;101448.25;;;12.07;60.04
62600;BME280;48671;48.922;2.346;2023-04-25T10:26:28;101463.31;;;12.24;59.35
62600;BME280;48671;48.922;2.346;2023-04-25T10:28:58;101464.53;;;12.14;58.66
62600;BME280;48671;48.922;2.346;2023-04-25T10:31:24;101467.47;;;12.03;58.27
62600;BME280;48671;48.922;2.346;2023-04-25T10:33:49;101458.34;;;11.90;58.66
62600;BME280;48671;48.922;2.346;2023-04-25T10:36:20;101469.66;;;11.90;58.55
62600;BME280;48671;48.922;2.346;2023-04-25T10:38:49;101470.69;;;11.85;58.28
62600;BME280;48671;48.922;2.346;2023-04-25T10:41:17;101467.25;;;11.83;58.67
62600;BME280;48671;48.922;2.346;2023-04-25T10:43:44;101479.41;;;11.84;57.69
62600;BME280;48671;48.922;2.346;2023-04-25T10:46:25;101471.59;;;11.82;57.94
62600;BME280;48671;48.922;2.346;2023-04-25T10:48:57;101470.84;;;11.79;58.52
62600;BME280;48671;48.922;2.346;2023-04-25T10:51:27;101470.84;;;11.79;57.74
62600;BME280;48671;48.922;2.346;2023-04-25T10:58:47;101474.09;;;11.87;56.92
62600;BME280;48671;48.922;2.346;2023-04-25T11:01:13;101481.59;;;11.98;56.97
62600;BME280;48671;48.922;2.346;2023-04-25T11:03:43;101482.91;;;12.11;58.15
62600;BME280;48671;48.922;2.346;2023-04-25T11:06:32;101483.44;;;12.46;57.40
62600;BME280;48671;48.922;2.346;2023-04-25T11:09:03;101481.13;;;12.63;56.18
62600;BME280;48671;48.922;2.346;2023-04-25T11:11:36;101487.03;;;12.68;55.96
62600;BME280;48671;48.922;2.346;2023-04-25T11:14:02;101478.63;;;12.60;55.52
62600;BME280;48671;48.922;2.346;2023-04-25T11:16:27;101483.09;;;12.56;55.16
62600;BME280;48671;48.922;2.346;2023-04-25T11:18:53;101476.59;;;12.43;55.03
62600;BME280;48671;48.922;2.346;2023-04-25T11:21:18;101482.03;;;12.37;55.48
62600;BME280;48671;48.922;2.346;2023-04-25T11:23:46;101479.41;;;12.37;56.28
62600;BME280;48671;48.922;2.346;2023-04-25T11:26:13;101485.66;;;12.33;54.64
62600;BME280;48671;48.922;2.346;2023-04-25T11:28:38;101483.78;;;12.36;55.62
62600;BME280;48671;48.922;2.346;2023-04-25T11:31:04;101486.94;;;12.46;56.00
62600;BME280;48671;48.922;2.346;2023-04-25T11:33:29;101483.88;;;12.58;56.04
62600;BME280;48671;48.922;2.346;2023-04-25T11:35:55;101473.13;;;12.68;55.36
62600;BME280;48671;48.922;2.346;2023-04-25T11:38:24;101487.44;;;12.81;54.85
62600;BME280;48671;48.922;2.346;2023-04-25T11:40:54;101492.56;;;12.84;54.89
62600;BME280;48671;48.922;2.346;2023-04-25T11:43:21;101495.06;;;12.87;54.56
62600;BME280;48671;48.922;2.346;2023-04-25T11:45:49;101479.81;;;12.75;54.51
62600;BME280;48671;48.922;2.346;2023-04-25T11:48:14;101500.03;;;12.70;54.20
62600;BME280;48671;48.922;2.346;2023-04-25T11:50:40;101495.13;;;12.60;54.82
62600;BME280;48671;48.922;2.346;2023-04-25T11:53:05;101499.75;;;12.52;55.48
62600;BME280;48671;48.922;2.346;2023-04-25T11:55:31;101509.44;;;12.49;55.66
62600;BME280;48671;48.922;2.346;2023-04-25T11:57:59;101491.41;;;12.43;55.22
62600;BME280;48671;48.922;2.346;2023-04-25T12:00:25;101496.56;;;12.44;55.34
62600;BME280;48671;48.922;2.346;2023-04-25T12:02:55;101504.34;;;12.46;55.71
62600;BME280;48671;48.922;2.346;2023-04-25T12:05:27;101500.66;;;12.51;55.59
62600;BME280;48671;48.922;2.346;2023-04-25T12:07:54;101494.44;;;12.55;55.02
62600;BME280;48671;48.922;2.346;2023-04-25T12:10:24;101497.84;;;12.57;56.06
62600;BME280;48671;48.922;2.346;2023-04-25T12:12:50;101495.66;;;12.70;54.85
62600;BME280;48671;48.922;2.346;2023-04-25T12:15:24;101507.97;;;12.92;55.70
62600;BME280;48671;48.922;2.346;2023-04-25T12:17:52;101492.69;;;13.04;54.51
62600;BME280;48671;48.922;2.346;2023-04-25T12:20:19;101483.66;;;13.13;54.20
62600;BME280;48671;48.922;2.346;2023-04-25T12:22:47;101490.13;;;13.28;53.46
62600;BME280;48671;48.922;2.346;2023-04-25T12:25:36;101506.81;;;13.47;53.18
62600;BME280;48671;48.922;2.346;2023-04-25T12:28:21;101508.41;;;13.51;53.01
62600;BME280;48671;48.922;2.346;2023-04-25T12:31:00;101508.84;;;13.63;52.59
62600;BME280;48671;48.922;2.346;2023-04-25T12:33:29;101505.38;;;13.62;52.71
62600;BME280;48671;48.922;2.346;2023-04-25T12:35:55;101514.31;;;13.78;52.45
62600;BME280;48671;48.922;2.346;2023-04-25T12:38:31;101501.72;;;13.88;51.94
62600;BME280;48671;48.922;2.346;2023-04-25T12:40:57;101504.09;;;14.16;50.88
62600;BME280;48671;48.922;2.346;2023-04-25T12:43:23;101499.84;;;14.14;50.57
62600;BME280;48671;48.922;2.346;2023-04-25T12:45:49;101505.34;;;14.28;51.08
62600;BME280;48671;48.922;2.346;2023-04-25T12:48:16;101496.50;;;14.31;52.34
62600;BME280;48671;48.922;2.346;2023-04-25T12:50:41;101508.13;;;14.45;52.17
62600;BME280;48671;48.922;2.346;2023-04-25T12:53:07;101516.75;;;14.47;49.99